Latest Weather Observations for Wellcamp Airport

IDQ60901

Issued at 7:41 pm EST Thursday 16 August 2018 (issued every 10 minutes, with the page automatically refreshed every 10 minutes)

About weather observations | Map of Brisbane area stations | Latest observations for Brisbane area | Other Formats
Station Details ID: 541150 Name: WELLCAMP AIRPORT Lat: -27.55 Lon: 151.78 Height: 436.98 m
Data from the previous 72 hours. | See also: Recent months for locations in Queensland
Date/Time
EST
Temp
°C
App
Temp
°C
Dew
Point
°C
Rel
Hum
%
Delta-T
°C
Wind Press
QNH
hPa
Press
MSL
hPa
Rain since
9am
mm
Dir  Spd
km/h
Gust
km/h
Spd
kts
Gust
kts
16/07:30pm 10.9 5.6 -7.8 26 6.5 W 13 15 7 8 1013.9 1013.7 0.0
16/07:00pm 13.4 8.0 -7.9 22 7.6 W 13 15 7 8 1013.7 1013.5 0.0
16/06:30pm 14.4 9.8 -8.2 20 8.1 W 9 9 5 5 1013.5 1013.3 0.0
16/06:00pm 17.5 13.0 -7.0 18 9.4 W 9 13 5 7 1013.2 1013.0 0.0
16/05:30pm 21.6 15.6 -7.0 14 11.4 W 17 26 9 14 1012.9 1012.6 0.0
16/05:00pm 23.4 16.8 -6.5 13 12.3 W 20 28 11 15 1012.5 1012.3 0.0
16/04:30pm 24.5 18.0 -5.7 13 12.7 W 20 28 11 15 1012.6 1012.4 0.0
16/04:00pm 24.9 17.7 -5.4 13 12.9 WSW 24 37 13 20 1012.6 1012.4 0.0
16/03:50pm 25.4 18.1 -6.0 12 13.3 WNW 24 65 13 35 1012.4 1012.2 0.0
16/03:30pm 25.5 17.1 -6.0 12 13.3 WNW 30 41 16 22 1012.5 1012.3 0.0
16/03:00pm 25.6 18.3 -5.9 12 13.4 W 24 33 13 18 1012.6 1012.4 0.0
16/02:30pm 25.8 18.9 -5.7 12 13.4 W 22 32 12 17 1012.8 1012.5 0.0
16/02:00pm 26.2 18.2 -5.4 12 13.6 WSW 28 43 15 23 1012.9 1012.6 0.0
16/01:30pm 25.3 16.5 -6.1 12 13.2 WSW 32 44 17 24 1013.4 1013.2 0.0
16/01:00pm 25.2 17.3 -5.1 13 13.0 WSW 28 41 15 22 1013.6 1013.4 0.0
16/12:30pm 24.6 16.6 -5.6 13 12.8 WSW 28 44 15 24 1014.2 1014.0 0.0
16/12:00pm 24.0 16.8 -5.1 14 12.3 W 24 43 13 23 1015.0 1014.9 0.0
16/11:30am 23.8 17.5 -4.4 15 12.1 W 20 32 11 17 1015.5 1015.3 0.0
16/11:00am 22.2 16.7 -1.8 20 10.7 WNW 17 30 9 16 1016.0 1015.8 0.0
16/10:30am 21.3 16.4 -0.6 23 9.9 WNW 15 24 8 13 1016.5 1016.3 0.0
16/10:00am 19.4 13.8 -0.1 27 8.7 NW 19 24 10 13 1016.7 1016.5 0.0
16/09:30am 18.4 12.8 0.1 29 8.2 NW 19 28 10 15 1016.9 1016.8 0.0
16/09:00am 17.0 11.2 0.2 32 7.4 NW 20 26 11 14 1016.9 1016.8 0.0
16/08:30am 15.2 9.9 -0.5 34 6.7 NW 17 20 9 11 1016.9 1016.8 0.0
16/08:00am 12.5 9.0 -2.9 34 6.1 N 6 9 3 5 1016.7 1016.5 0.0
16/07:56am 11.6 8.0 -3.7 34 5.9 N 6 7 3 4 1016.8 1016.7 0.0
16/07:30am 6.6 3.3 -4.2 46 3.9 S 4 6 2 3 1016.7 1016.5 0.0
16/07:00am 2.4 -0.7 -6.2 53 2.9 SSW 2 4 1 2 1016.4 1016.2 0.0
16/06:30am 1.5 -1.6 -6.3 56 2.6 S 2 6 1 3 1016.2 1016.0 0.0
16/06:00am 1.1 -3.0 -6.9 55 2.6 S 7 11 4 6 1016.2 1016.0 0.0
16/05:30am 1.0 -3.2 -7.2 54 2.6 S 7 7 4 4 1015.9 1015.7 0.0
16/05:00am 2.1 -2.0 -6.7 52 2.9 SSE 7 7 4 4 1015.7 1015.5 0.0
16/04:30am 1.3 -3.2 -7.0 54 2.7 SSE 9 11 5 6 1015.5 1015.3 0.0
16/04:00am 1.9 -1.7 -6.9 52 2.9 S 4 6 2 3 1015.5 1015.3 0.0
16/03:30am 1.7 -2.4 -7.1 52 2.9 S 7 9 4 5 1015.5 1015.3 0.0
16/03:00am 2.7 -1.8 -6.7 50 3.2 S 9 11 5 6 1015.8 1015.6 0.0
16/02:30am 2.8 -1.7 -6.8 49 3.2 S 9 11 5 6 1016.1 1015.9 0.0
16/02:00am 1.4 -2.9 -8.4 48 3.0 SSE 7 7 4 4 1016.3 1016.1 0.0
16/01:30am 2.9 -1.6 -7.0 48 3.3 SSE 9 11 5 6 1016.6 1016.4 0.0
16/01:00am 3.9 0.3 -6.9 45 3.5 SSE 4 6 2 3 1016.7 1016.5 0.0
16/12:30am 3.9 -0.6 -6.9 45 3.5 S 9 11 5 6 1016.8 1016.7 0.0
16/12:00am 5.1 1.9 -6.7 42 3.9 S 2 4 1 2 1017.0 1016.9 0.0
 
Date/Time
EST
Temp
°C
App
Temp
°C
Dew
Point
°C
Rel
Hum
%
Delta-T
°C
Wind Press
QNH
hPa
Press
MSL
hPa
Rain since
9am
mm
Dir  Spd
km/h
Gust
km/h
Spd
kts
Gust
kts
15/11:30pm 4.5 0.6 -6.7 44 3.7 S 6 7 3 4 1017.3 1017.2 0.0
15/11:00pm 6.1 1.2 -6.8 39 4.3 SSE 11 13 6 7 1017.4 1017.3 0.0
15/10:30pm 6.6 2.7 -6.3 39 4.4 SSE 6 6 3 3 1017.4 1017.3 0.0
15/10:00pm 6.8 3.7 -6.2 39 4.4 S 2 4 1 2 1017.4 1017.3 0.0
15/09:30pm 7.9 4.4 -6.6 35 5.0 SSE 4 7 2 4 1017.6 1017.4 0.0
15/09:00pm 8.6 5.1 -6.4 34 5.2 SE 4 6 2 3 1017.6 1017.4 0.0
15/08:30pm 10.6 7.1 -6.7 29 6.1 SSE 4 7 2 4 1017.3 1017.2 0.0
15/08:00pm 9.7 5.6 -6.2 32 5.6 SE 7 7 4 4 1017.3 1017.2 0.0
15/07:30pm 10.9 7.3 -6.9 28 6.3 SE 4 6 2 3 1017.2 1017.1 0.0
15/07:00pm 13.9 10.4 -5.8 25 7.4 N 4 6 2 3 1017.1 1017.0 0.0
15/06:30pm 14.1 10.2 -6.1 24 7.6 N 6 7 3 4 1017.1 1017.0 0.0
15/06:00pm 16.0 12.1 -5.1 23 8.3 NNW 7 11 4 6 1017.1 1017.0 0.0
15/05:30pm 19.9 14.5 -4.4 19 10.1 NNW 15 19 8 10 1016.7 1016.5 0.0
15/05:00pm 22.7 16.5 -4.4 16 11.5 NW 19 24 10 13 1016.5 1016.3 0.0
15/04:30pm 24.0 17.8 -3.3 16 12.0 NW 20 32 11 17 1016.3 1016.1 0.0
15/04:00pm 24.5 17.8 -3.8 15 12.3 NW 22 30 12 16 1016.4 1016.2 0.0
15/03:30pm 24.6 18.3 -3.7 15 12.4 NW 20 30 11 16 1016.6 1016.4 0.0
15/03:00pm 24.5 18.2 -3.8 15 12.3 NW 20 30 11 16 1016.7 1016.5 0.0
15/02:30pm 25.0 18.9 -4.3 14 12.7 WNW 19 32 10 17 1017.0 1016.9 0.0
15/02:00pm 25.1 18.8 -4.2 14 12.7 NW 20 33 11 18 1017.6 1017.4 0.0
15/01:30pm 24.2 17.1 -4.0 15 12.2 WNW 24 37 13 20 1017.8 1017.6 0.0
15/01:00pm 23.5 17.2 -3.7 16 11.8 NW 20 35 11 19 1018.5 1018.3 0.0
15/12:30pm 23.0 16.5 -2.6 18 11.3 WNW 22 32 12 17 1019.1 1019.0 0.0
15/12:00pm 22.2 16.1 -2.5 19 10.8 WNW 20 32 11 17 1020.0 1019.8 0.0
15/11:30am 21.1 15.0 -2.7 20 10.3 WNW 20 32 11 17 1020.6 1020.4 0.0
15/11:00am 20.6 15.0 -2.5 21 10.0 WNW 17 28 9 15 1021.1 1021.0 0.0
15/10:30am 19.8 15.1 -1.9 23 9.4 WNW 13 22 7 12 1021.5 1021.4 0.0
15/10:00am 18.2 14.3 -1.6 26 8.5 NW 9 17 5 9 1021.8 1021.7 0.0
15/09:30am 16.3 12.3 -2.2 28 7.7 N 9 13 5 7 1022.0 1021.9 0.0
15/09:00am 14.2 10.7 -2.7 31 6.8 N 6 7 3 4 1022.1 1022.0 0.0
15/08:30am 11.8 8.6 -3.1 35 5.8 N 4 6 2 3 1021.9 1021.8 0.0
15/08:00am 8.1 4.5 -3.4 44 4.3 S 6 7 3 4 1021.8 1021.7 0.0
15/07:30am 4.1 0.7 -5.1 51 3.1 SSE 4 6 2 3 1021.8 1021.7 0.0
15/07:00am 0.3 -4.6 -6.8 59 2.2 SSE 11 13 6 7 1021.5 1021.4 0.0
15/06:30am -0.6 -5.5 -7.6 59 2.1 SSE 11 13 6 7 1021.2 1021.1 0.0
15/06:00am -1.0 -5.0 -7.5 61 1.9 S 6 7 3 4 1021.2 1021.1 0.0
15/05:30am -1.3 -5.5 -7.8 61 1.9 S 7 9 4 5 1021.1 1021.0 0.0
15/05:00am 0.5 -4.0 -7.2 56 2.4 S 9 13 5 7 1021.2 1021.1 0.0
15/04:30am -0.5 -5.1 -7.7 58 2.2 SSE 9 11 5 6 1021.3 1021.2 0.0
15/04:00am -0.5 -4.7 -7.9 57 2.2 SSE 7 9 4 5 1021.3 1021.2 0.0
15/03:30am 0.5 -4.1 -7.5 55 2.5 SSE 9 11 5 6 1021.4 1021.3 0.0
15/03:00am 0.4 -4.2 -7.6 55 2.5 S 9 11 5 6 1021.4 1021.3 0.0
15/02:30am 0.5 -3.1 -7.9 53 2.6 S 4 7 2 4 1021.4 1021.3 0.0
15/02:00am 1.1 -3.1 -7.4 53 2.7 S 7 9 4 5 1021.4 1021.3 0.0
15/01:30am 1.9 -2.7 -7.4 50 3.0 S 9 13 5 7 1021.6 1021.5 0.0
15/01:00am 2.1 -2.4 -7.2 50 3.0 SSE 9 11 5 6 1021.8 1021.7 0.0
15/12:30am 2.7 -1.2 -6.7 50 3.2 SSE 6 9 3 5 1022.1 1022.0 0.0
15/12:00am 3.1 -1.0 -7.1 47 3.4 SE 7 9 4 5 1022.4 1022.2 0.0
 
Date/Time
EST
Temp
°C
App
Temp
°C
Dew
Point
°C
Rel
Hum
%
Delta-T
°C
Wind Press
QNH
hPa
Press
MSL
hPa
Rain since
9am
mm
Dir  Spd
km/h
Gust
km/h
Spd
kts
Gust
kts
14/11:30pm 4.1 -0.4 -7.0 44 3.6 SSE 9 11 5 6 1022.5 1022.3 0.0
14/11:00pm 4.2 -0.3 -7.2 43 3.7 SSE 9 13 5 7 1022.5 1022.3 0.0
14/10:30pm 4.3 0.7 -7.5 42 3.8 S 4 6 2 3 1022.6 1022.4 0.0
14/10:00pm 4.6 0.6 -7.5 41 3.9 SSE 6 9 3 5 1022.6 1022.4 0.0
14/09:30pm 7.1 2.2 -6.9 36 4.7 S 11 15 6 8 1022.6 1022.4 0.0
14/09:00pm 8.0 2.0 -6.5 35 5.0 S 17 19 9 10 1022.5 1022.3 0.0
14/08:30pm 6.8 1.5 -6.8 37 4.6 S 13 15 7 8 1022.2 1022.1 0.0
14/08:00pm 8.9 4.8 -6.5 33 5.4 S 7 9 4 5 1022.1 1022.0 0.0
14/07:30pm 9.4 4.5 -6.8 31 5.7 S 11 13 6 7 1021.8 1021.7 0.0
14/07:00pm 10.5 5.6 -6.8 29 6.1 S 11 13 6 7 1021.5 1021.4 0.0
14/06:30pm 12.3 9.2 -6.1 27 6.8 SSW 2 4 1 2 1021.3 1021.2 0.0
14/06:00pm 16.1 13.0 -6.2 21 8.5 S 2 4 1 2 1021.2 1021.1 0.0
14/05:30pm 18.9 15.2 -4.5 20 9.6 W 6 7 3 4 1021.0 1020.9 0.0
14/05:00pm 21.5 17.2 -4.5 17 10.9 W 9 13 5 7 1020.8 1020.7 0.0
14/04:30pm 22.5 18.6 -4.5 16 11.4 WSW 7 17 4 9 1020.6 1020.4 0.0
14/04:00pm 22.9 17.8 -5.1 15 11.7 WSW 13 19 7 10 1020.6 1020.4 0.0
14/03:30pm 23.4 18.4 -4.7 15 11.9 WNW 13 24 7 13 1020.6 1020.4 0.0
14/03:00pm 23.0 18.5 -3.3 17 11.4 W 11 19 6 10 1020.7 1020.5 0.0
14/02:30pm 23.3 19.5 -3.9 16 11.7 WNW 7 15 4 8 1020.9 1020.8 0.0
14/02:00pm 22.5 18.7 -5.4 15 11.6 W 6 15 3 8 1021.1 1021.0 0.0
14/01:30pm 22.6 19.1 -2.9 18 11.1 WNW 6 13 3 7 1021.4 1021.3 0.0
14/01:00pm 21.5 17.1 -2.4 20 10.4 N 11 19 6 10 1021.7 1021.6 0.0
14/12:30pm 20.9 17.7 -3.6 19 10.4 W 4 9 2 5 1022.4 1022.2 0.0
14/12:00pm 20.0 15.5 -3.6 20 9.9 SW 11 28 6 15 1023.0 1022.9 0.0
14/11:30am 19.4 15.6 -3.5 21 9.6 SSE 7 20 4 11 1023.5 1023.4 0.0
14/11:00am 17.6 14.3 -1.1 28 8.1 WSW 6 11 3 6 1023.9 1023.8 0.0
14/10:30am 15.9 13.0 -1.2 31 7.3 SSE 4 9 2 5 1024.8 1024.7 0.0
14/10:00am 13.7 10.2 -1.1 36 6.1 N 7 11 4 6 1025.3 1025.2 0.0
14/09:30am 11.8 8.4 -2.0 38 5.5 NNW 6 9 3 5 1025.6 1025.5 0.0
14/09:00am 9.7 6.3 -2.3 43 4.6 NNE 6 9 3 5 1025.7 1025.6 0.0
14/08:30am 7.5 4.4 -2.8 48 3.9 NNW 4 7 2 4 1025.6 1025.5 0.0
14/08:00am 4.7 1.9 -3.6 55 2.9 S 2 4 1 2 1025.3 1025.2 0.0
14/07:30am 1.2 -2.6 -5.3 62 2.2 SSE 6 7 3 4 1025.2 1025.1 0.0
14/07:00am -2.4 -6.6 -7.5 68 1.4 SSE 7 11 4 6 1024.9 1024.8 0.0
14/06:30am -2.4 - -7.3 69 1.4 - - - - - 1024.4 1024.3 0.0
14/06:00am -4.1 -7.8 -8.6 71 1.1 S 4 6 2 3 1024.1 1024.0 0.0
14/05:30am -3.3 -7.3 -8.0 70 1.2 S 6 9 3 5 1023.8 1023.7 0.0
14/05:00am -2.3 -7.2 -7.4 68 1.4 SSE 11 13 6 7 1023.7 1023.6 0.0
14/04:30am -2.2 -7.1 -7.3 68 1.4 SSE 11 13 6 7 1023.5 1023.4 0.0
14/04:00am -1.7 -6.6 -7.0 67 1.5 SSE 11 15 6 8 1023.4 1023.3 0.0
14/03:30am -2.5 -7.1 -8.4 64 1.6 S 9 11 5 6 1023.3 1023.2 0.0
14/03:00am -1.9 -6.0 -8.2 62 1.8 S 6 9 3 5 1023.3 1023.2 0.0
14/02:30am 0.0 -4.1 -6.6 61 2.1 SSE 7 9 4 5 1023.4 1023.3 0.0
14/02:00am 0.0 -4.1 -6.6 61 2.1 SSE 7 13 4 7 1023.6 1023.5 0.0
14/01:30am 0.0 -4.0 -7.3 58 2.2 S 6 7 3 4 1023.9 1023.8 0.0
14/01:00am 1.0 -2.2 -7.0 55 2.5 SE 2 6 1 3 1023.9 1023.8 0.0
14/12:30am 1.0 -2.6 -7.2 54 2.6 WNW 4 6 2 3 1024.1 1024.0 0.0
14/12:00am -0.4 -4.6 -7.2 60 2.1 NNW 7 11 4 6 1024.0 1023.9 0.0
 
Date/Time
EST
Temp
°C
App
Temp
°C
Dew
Point
°C
Rel
Hum
%
Delta-T
°C
Wind Press
QNH
hPa
Press
MSL
hPa
Rain since
9am
mm
Dir  Spd
km/h
Gust
km/h
Spd
kts
Gust
kts
13/11:30pm 2.4 -1.1 -6.7 51 3.1 ESE 4 6 2 3 1024.0 1023.9 0.0
13/11:00pm 0.9 -3.3 -7.8 52 2.7 S 7 7 4 4 1024.3 1024.2 0.0
13/10:30pm 4.4 -0.4 -6.5 45 3.6 S 11 11 6 6 1024.5 1024.4 0.0
13/10:00pm 2.7 -1.5 -7.2 48 3.3 S 7 9 4 5 1024.4 1024.3 0.0
13/09:30pm 3.2 -0.3 -6.7 48 3.2 S 4 6 2 3 1024.1 1024.0 0.0
13/09:00pm 5.0 1.5 -6.8 42 3.9 SSE 4 7 2 4 1024.0 1023.9 0.0
13/08:30pm 6.4 2.5 -6.9 38 4.5 N 6 9 3 5 1023.2 1023.1 0.0
13/08:00pm 7.9 4.9 -5.5 38 4.7 ESE 2 4 1 2 1023.6 1023.5 0.0

Latest Capital City Observations: Canberra | Sydney | Melbourne | Brisbane | Adelaide | Perth | Hobart | Darwin

Other Formats:

Comma delimited format used in spreadsheet applications
http://www.bom.gov.au/fwo/IDQ60901/IDQ60901.99435.axf

JavaScript Object Notation format (JSON) in row-major order
http://www.bom.gov.au/fwo/IDQ60901/IDQ60901.99435.json